createdAt,value
2018-04-17T00:01:55.664Z,11.53
2018-04-17T00:04:22.949Z,12.40
2018-04-17T00:06:50.233Z,12.83
2018-04-17T00:09:17.507Z,10.73
2018-04-17T00:11:44.812Z,12.30
2018-04-17T00:14:12.126Z,12.07
2018-04-17T00:16:39.421Z,10.90
2018-04-17T00:19:06.793Z,11.90
2018-04-17T00:21:34.077Z,12.03
2018-04-17T00:24:01.377Z,12.10
2018-04-17T00:26:28.680Z,11.60
2018-04-17T00:28:55.968Z,12.47
2018-04-17T00:31:23.246Z,9.43
2018-04-17T00:33:50.538Z,10.30
2018-04-17T00:36:17.807Z,9.30
2018-04-17T00:38:45.090Z,9.43
2018-04-17T00:41:12.372Z,9.10
2018-04-17T00:43:39.714Z,9.40
2018-04-17T00:46:07.041Z,8.47
2018-04-17T00:48:34.326Z,12.00
2018-04-17T00:51:01.607Z,9.30
2018-04-17T00:53:34.645Z,8.40
2018-04-17T00:56:01.942Z,8.87
2018-04-17T00:58:29.225Z,8.90
2018-04-17T01:00:56.500Z,8.60
2018-04-17T01:03:23.784Z,8.70
2018-04-17T01:05:51.060Z,9.13
2018-04-17T01:08:18.345Z,9.33
2018-04-17T01:10:45.617Z,8.50
2018-04-17T01:13:12.896Z,8.80
2018-04-17T01:15:40.181Z,8.70
2018-04-17T01:18:07.499Z,8.20
2018-04-17T01:20:34.790Z,8.07
2018-04-17T01:23:02.085Z,8.67
2018-04-17T01:25:29.385Z,8.10
2018-04-17T01:27:56.667Z,7.83
2018-04-17T01:30:23.977Z,8.03
2018-04-17T01:32:51.265Z,9.47
2018-04-17T01:35:18.542Z,8.23
2018-04-17T01:37:45.850Z,10.10
2018-04-17T01:40:13.165Z,9.33
2018-04-17T01:42:40.447Z,8.60
2018-04-17T01:45:07.753Z,9.53
2018-04-17T01:47:35.066Z,9.20
2018-04-17T01:50:03.334Z,8.63
2018-04-17T01:52:30.637Z,7.80
2018-04-17T01:54:58.026Z,8.60
2018-04-17T01:57:25.305Z,8.53
2018-04-17T01:59:52.581Z,9.30
2018-04-17T02:02:19.895Z,7.23
2018-04-17T02:04:47.187Z,10.50
2018-04-17T02:07:14.471Z,7.63
2018-04-17T02:09:41.769Z,8.60
2018-04-17T02:12:09.045Z,9.30
2018-04-17T02:14:36.390Z,8.77
2018-04-17T02:17:03.659Z,8.37
2018-04-17T02:19:30.945Z,8.47
2018-04-17T02:21:58.245Z,8.53
2018-04-17T02:24:25.551Z,8.93
2018-04-17T02:26:52.814Z,10.33
2018-04-17T02:29:20.111Z,7.90
2018-04-17T02:31:47.385Z,7.87
2018-04-17T02:34:14.672Z,9.53
2018-04-17T02:36:41.949Z,9.43
2018-04-17T02:39:09.244Z,8.70
2018-04-17T02:41:36.550Z,7.83
2018-04-17T02:44:03.816Z,8.13
2018-04-17T02:46:31.091Z,7.37
2018-04-17T02:48:58.376Z,8.57
2018-04-17T02:51:25.680Z,8.30
2018-04-17T02:53:53.942Z,8.90
2018-04-17T02:56:21.205Z,7.60
2018-04-17T02:58:48.489Z,8.57
2018-04-17T03:01:15.789Z,7.57
2018-04-17T03:03:43.088Z,9.10
2018-04-17T03:06:10.401Z,7.43
2018-04-17T03:08:37.671Z,8.57
2018-04-17T03:11:04.965Z,9.40
2018-04-17T03:13:32.300Z,8.03
2018-04-17T03:15:59.577Z,8.60
2018-04-17T03:18:26.911Z,7.90
2018-04-17T03:20:54.169Z,7.87
2018-04-17T03:23:21.456Z,8.07
2018-04-17T03:25:48.713Z,7.13
2018-04-17T03:28:16.008Z,6.40
2018-04-17T03:30:43.324Z,6.80
2018-04-17T03:33:10.613Z,6.63
2018-04-17T03:35:37.949Z,6.00
2018-04-17T03:38:05.741Z,5.63
2018-04-17T03:40:33.006Z,5.83
2018-04-17T03:43:00.303Z,5.23
2018-04-17T03:45:27.562Z,5.57
2018-04-17T03:47:54.845Z,4.93
2018-04-17T03:50:22.125Z,5.13
2018-04-17T03:52:49.417Z,4.80
2018-04-17T03:55:16.685Z,5.30
2018-04-17T03:57:44.013Z,4.70
2018-04-17T04:00:11.308Z,4.50
2018-04-17T04:02:38.603Z,4.70
2018-04-17T04:05:05.925Z,5.50
2018-04-17T04:07:33.201Z,5.83
2018-04-17T04:10:00.464Z,5.80
2018-04-17T04:12:27.745Z,5.53
2018-04-17T04:14:55.016Z,5.37
2018-04-17T04:17:28.189Z,5.53
2018-04-17T04:20:01.146Z,5.07
2018-04-17T04:22:34.179Z,5.97
2018-04-17T04:28:07.024Z,4.87
2018-04-17T04:30:34.299Z,4.80
2018-04-17T04:33:01.606Z,5.70
2018-04-17T04:35:28.898Z,6.90
2018-04-17T04:37:56.197Z,6.43
2018-04-17T04:40:23.491Z,6.40
2018-04-17T04:42:51.365Z,7.17
2018-04-17T04:45:19.553Z,7.07
2018-04-17T04:47:46.838Z,6.80
2018-04-17T04:50:14.117Z,6.13
2018-04-17T04:52:41.408Z,6.60
2018-04-17T04:55:08.700Z,6.67
2018-04-17T04:57:36.041Z,7.10
2018-04-17T05:00:04.214Z,6.10
2018-04-17T05:02:31.510Z,6.13
2018-04-17T05:04:58.829Z,6.60
2018-04-17T05:07:26.113Z,6.97
2018-04-17T05:09:53.391Z,7.43
2018-04-17T05:12:20.676Z,6.90
2018-04-17T05:14:47.946Z,6.00
2018-04-17T05:17:15.221Z,7.60
2018-04-17T05:19:42.677Z,6.07
2018-04-17T05:22:09.938Z,5.10
2018-04-17T05:24:37.245Z,6.93
2018-04-17T05:27:04.537Z,10.43
2018-04-17T05:29:31.822Z,8.47
2018-04-17T05:31:59.126Z,13.60
2018-04-17T05:34:26.425Z,10.10
2018-04-17T05:36:53.721Z,7.50
2018-04-17T05:39:21.000Z,7.27
2018-04-17T05:41:48.305Z,6.50
2018-04-17T05:44:15.594Z,7.13
2018-04-17T05:46:42.873Z,7.40
2018-04-17T05:49:10.193Z,8.27
2018-04-17T05:51:37.533Z,15.77
2018-04-17T05:54:04.817Z,6.07
2018-04-17T05:56:32.250Z,7.53
2018-04-17T05:58:59.802Z,10.80
2018-04-17T06:01:27.091Z,7.47
2018-04-17T06:03:54.391Z,8.90
2018-04-17T06:06:21.693Z,7.80
2018-04-17T06:08:49.096Z,7.60
2018-04-17T06:11:16.749Z,8.23
2018-04-17T06:13:44.164Z,7.37
2018-04-17T06:16:11.451Z,6.73
2018-04-17T06:18:38.860Z,6.80
2018-04-17T06:21:06.264Z,5.70
2018-04-17T06:23:33.700Z,6.27
2018-04-17T06:26:01.179Z,7.13
2018-04-17T06:28:28.586Z,6.50
2018-04-17T06:30:55.955Z,6.80
2018-04-17T06:33:23.261Z,8.20
2018-04-17T06:35:50.661Z,7.13
2018-04-17T06:38:18.099Z,6.90
2018-04-17T06:40:45.567Z,5.90
2018-04-17T06:43:13.031Z,7.33
2018-04-17T06:45:40.537Z,7.00
2018-04-17T06:48:08.282Z,7.07
2018-04-17T06:50:36.056Z,6.13
2018-04-17T06:53:03.600Z,7.43
2018-04-17T06:55:31.057Z,7.43
2018-04-17T06:57:58.391Z,5.80
2018-04-17T07:00:26.188Z,5.20
2018-04-17T07:05:25.718Z,7.27
2018-04-17T07:07:54.518Z,6.47
2018-04-17T07:15:26.934Z,5.67
2018-04-17T07:17:55.264Z,14.80
2018-04-17T07:20:22.879Z,6.00
2018-04-17T07:22:50.281Z,7.00
2018-04-17T07:30:21.237Z,6.00
2018-04-17T07:32:49.123Z,6.80
2018-04-17T07:35:16.462Z,6.07
2018-04-17T07:37:44.111Z,6.90
2018-04-17T07:42:44.614Z,5.30
2018-04-17T07:45:12.955Z,6.30
2018-04-17T07:47:46.514Z,6.17
2018-04-17T07:52:45.505Z,6.30
2018-04-17T07:55:14.033Z,9.23
2018-04-17T07:57:41.980Z,11.50
2018-04-17T08:00:09.887Z,11.17
2018-04-17T08:02:39.763Z,10.93
2018-04-17T08:05:07.603Z,15.50
2018-04-17T08:07:35.732Z,6.87
2018-04-17T08:10:03.310Z,6.27
2018-04-17T08:12:30.950Z,6.00
2018-04-17T08:14:58.436Z,5.77
2018-04-17T08:19:59.257Z,6.30
2018-04-17T08:22:27.347Z,6.63
2018-04-17T08:27:31.123Z,7.97
2018-04-17T08:29:58.757Z,10.40
2018-04-17T08:34:58.551Z,9.57
2018-04-17T08:37:26.178Z,10.50
2018-04-17T08:39:53.651Z,9.93
2018-04-17T08:52:36.573Z,12.70
2018-04-17T08:55:04.018Z,8.27
2018-04-17T09:00:03.864Z,8.43
2018-04-17T09:02:32.126Z,8.57
2018-04-17T09:07:31.516Z,6.97
2018-04-17T09:09:58.970Z,5.50
2018-04-17T09:12:29.132Z,7.57
2018-04-17T09:14:57.183Z,6.27
2018-04-17T09:17:26.540Z,6.63
2018-04-17T09:19:53.984Z,6.70
2018-04-17T09:22:21.984Z,6.53
2018-04-17T09:24:50.289Z,6.43
2018-04-17T09:27:22.758Z,6.60
2018-04-17T09:32:25.269Z,7.90
2018-04-17T09:34:52.894Z,7.20
2018-04-17T09:37:20.211Z,7.20
2018-04-17T09:39:47.554Z,7.57
2018-04-17T09:42:14.921Z,7.47
2018-04-17T09:44:42.737Z,7.03
2018-04-17T09:49:44.354Z,5.97
2018-04-17T09:52:11.937Z,6.00
2018-04-17T09:54:39.445Z,5.07
2018-04-17T09:59:43.107Z,8.53
2018-04-17T10:02:10.722Z,6.20
2018-04-17T10:04:38.429Z,5.10
2018-04-17T10:09:37.446Z,8.37
2018-04-17T10:12:05.624Z,7.30
2018-04-17T10:14:32.973Z,7.00
2018-04-17T10:17:00.485Z,5.60
2018-04-17T10:19:28.142Z,5.27
2018-04-17T10:21:55.505Z,4.57
2018-04-17T10:24:23.319Z,5.30
2018-04-17T10:26:50.860Z,10.30
2018-04-17T10:29:18.240Z,5.20
2018-04-17T10:31:47.693Z,4.30
2018-04-17T10:34:15.044Z,4.27
2018-04-17T10:36:42.506Z,5.10
2018-04-17T10:39:10.136Z,4.17
2018-04-17T10:41:37.644Z,3.10
2018-04-17T10:44:05.353Z,2.63
2018-04-17T10:46:32.741Z,5.10
2018-04-17T10:49:00.927Z,5.00
2018-04-17T10:51:28.304Z,5.50
2018-04-17T10:53:59.067Z,4.33
2018-04-17T10:56:27.080Z,5.53
2018-04-17T10:58:55.501Z,6.33
2018-04-17T11:01:22.929Z,7.20
2018-04-17T11:06:21.848Z,7.47
2018-04-17T11:08:49.187Z,6.13
2018-04-17T11:11:16.538Z,5.30
2018-04-17T11:16:16.059Z,6.00
2018-04-17T11:21:15.169Z,5.00
2018-04-17T11:23:43.548Z,5.07
2018-04-17T11:26:10.937Z,4.73
2018-04-17T11:28:39.330Z,4.50
2018-04-17T11:31:08.777Z,3.40
2018-04-17T11:33:36.382Z,2.63
2018-04-17T11:36:03.782Z,2.90
2018-04-17T11:38:31.249Z,3.47
2018-04-17T11:40:58.618Z,4.93
2018-04-17T11:43:26.052Z,4.80
2018-04-17T11:45:53.901Z,3.37
2018-04-17T11:48:21.434Z,3.93
2018-04-17T11:53:20.887Z,5.27
2018-04-17T11:55:48.309Z,5.40
2018-04-17T11:58:15.729Z,4.87
2018-04-17T12:00:43.871Z,3.40
2018-04-17T12:05:48.719Z,4.33
2018-04-17T12:08:16.035Z,4.33
2018-04-17T12:10:43.669Z,4.10
2018-04-17T12:13:11.462Z,3.90
2018-04-17T12:15:38.847Z,3.83
2018-04-17T12:18:07.859Z,2.30
2018-04-17T12:20:35.387Z,3.30
2018-04-17T12:23:03.113Z,4.10
2018-04-17T12:25:31.632Z,4.40
2018-04-17T12:30:30.724Z,4.93
2018-04-17T12:32:58.802Z,3.57
2018-04-17T12:37:58.920Z,2.40
2018-04-17T12:40:27.140Z,3.30
2018-04-17T12:42:55.711Z,3.40
2018-04-17T12:45:23.167Z,3.37
2018-04-17T12:50:22.355Z,4.83
2018-04-17T12:52:49.769Z,5.63
2018-04-17T12:55:17.336Z,4.40
2018-04-17T12:57:44.910Z,7.60
2018-04-17T13:00:12.362Z,5.27
2018-04-17T13:02:39.958Z,7.27
2018-04-17T13:07:39.124Z,6.13
2018-04-17T13:10:07.454Z,6.60
2018-04-17T13:12:36.553Z,7.70
2018-04-17T13:15:04.019Z,5.40
2018-04-17T13:17:31.467Z,7.97
2018-04-17T13:19:59.111Z,7.40
2018-04-17T13:22:27.300Z,7.40
2018-04-17T13:24:54.603Z,7.37
2018-04-17T13:27:21.969Z,5.93
2018-04-17T13:29:49.342Z,5.50
2018-04-17T13:32:17.125Z,8.47
2018-04-17T13:34:44.577Z,9.23
2018-04-17T13:37:12.003Z,9.30
2018-04-17T13:39:39.977Z,8.27
2018-04-17T13:42:07.498Z,8.07
2018-04-17T13:44:36.114Z,7.50
2018-04-17T13:47:06.022Z,7.77
2018-04-17T13:49:33.487Z,8.57
2018-04-17T13:52:01.647Z,8.07
2018-04-17T13:54:29.038Z,7.00
2018-04-17T13:56:57.712Z,8.10
2018-04-17T13:59:25.098Z,7.93
2018-04-17T14:01:53.779Z,8.67
2018-04-17T14:04:21.366Z,8.00
2018-04-17T14:06:48.699Z,7.13
2018-04-17T14:09:16.052Z,8.50
2018-04-17T14:11:43.437Z,7.57
2018-04-17T14:14:13.471Z,8.07
2018-04-17T14:16:41.016Z,7.10
2018-04-17T14:19:10.460Z,7.00
2018-04-17T14:21:39.124Z,7.20
2018-04-17T14:24:07.261Z,11.50
2018-04-17T14:26:35.214Z,6.03
2018-04-17T14:29:02.570Z,6.23
2018-04-17T14:34:01.539Z,6.90
2018-04-17T14:36:29.051Z,6.73
2018-04-17T14:41:28.687Z,5.97
2018-04-17T14:43:56.533Z,6.97
2018-04-17T14:46:24.070Z,8.50
2018-04-17T14:48:51.386Z,7.20
2018-04-17T14:51:18.780Z,9.87
2018-04-17T14:53:46.305Z,8.80
2018-04-17T14:56:13.751Z,7.17
2018-04-17T14:58:43.288Z,6.90
2018-04-17T15:01:11.070Z,7.27
2018-04-17T15:03:38.455Z,7.23
2018-04-17T15:06:05.864Z,6.00
2018-04-17T15:08:33.159Z,5.30
2018-04-17T15:11:00.769Z,6.17
2018-04-17T15:13:28.234Z,5.87
2018-04-17T15:15:55.583Z,6.07
2018-04-17T15:18:22.951Z,6.33
2018-04-17T15:20:50.579Z,6.60
2018-04-17T15:23:17.894Z,7.57
2018-04-17T15:25:45.345Z,9.20
2018-04-17T15:28:12.722Z,10.03
2018-04-17T15:30:40.261Z,10.77
2018-04-17T15:33:08.115Z,9.63
2018-04-17T15:35:35.703Z,10.23
2018-04-17T15:38:03.134Z,9.97
2018-04-17T15:40:31.033Z,9.47
2018-04-17T15:42:59.568Z,10.17
2018-04-17T15:45:27.449Z,9.10
2018-04-17T15:47:54.801Z,9.37
2018-04-17T15:50:22.571Z,8.90
2018-04-17T15:52:49.957Z,9.60
2018-04-17T15:55:17.425Z,9.43
2018-04-17T15:57:44.937Z,8.70
2018-04-17T16:00:13.179Z,8.70
2018-04-17T16:02:40.593Z,9.10
2018-04-17T16:05:08.036Z,8.40
2018-04-17T16:07:35.524Z,8.23
2018-04-17T16:10:03.191Z,9.53
2018-04-17T16:12:30.578Z,9.50
2018-04-17T16:14:58.187Z,9.20
2018-04-17T16:17:25.562Z,10.57
2018-04-17T16:19:52.972Z,11.13
2018-04-17T16:22:20.335Z,10.57
2018-04-17T16:24:47.675Z,9.27
2018-04-17T16:27:15.211Z,9.10
2018-04-17T16:29:42.688Z,11.73
2018-04-17T16:32:10.916Z,10.80
2018-04-17T16:34:38.908Z,11.70
2018-04-17T16:37:06.366Z,10.13
2018-04-17T16:39:33.768Z,10.50
2018-04-17T16:42:02.728Z,9.43
2018-04-17T16:47:01.722Z,10.70
2018-04-17T16:49:29.050Z,10.37
2018-04-17T16:51:56.437Z,10.83
2018-04-17T16:54:23.826Z,12.07
2018-04-17T16:56:51.198Z,12.10
2018-04-17T16:59:18.593Z,12.70
2018-04-17T17:01:46.140Z,10.57
2018-04-17T17:04:14.403Z,13.20
2018-04-17T17:06:42.218Z,11.47
2018-04-17T17:09:09.670Z,10.17
2018-04-17T17:11:37.243Z,11.77
2018-04-17T17:14:04.952Z,11.40
2018-04-17T17:16:32.304Z,11.00
2018-04-17T17:19:01.795Z,10.67
2018-04-17T17:21:29.138Z,9.83
2018-04-17T17:23:56.554Z,11.27
2018-04-17T17:26:24.018Z,10.90
2018-04-17T17:28:51.334Z,11.47
2018-04-17T17:31:18.769Z,10.77
2018-04-17T17:33:46.373Z,10.20
2018-04-17T17:36:13.769Z,10.70
2018-04-17T17:38:41.121Z,10.90
2018-04-17T17:41:09.597Z,11.80
2018-04-17T17:43:37.007Z,12.57
2018-04-17T17:46:04.489Z,11.67
2018-04-17T17:48:31.878Z,12.33
2018-04-17T17:50:59.256Z,11.67
2018-04-17T17:53:26.697Z,11.33
2018-04-17T17:55:54.167Z,11.53
2018-04-17T17:58:23.707Z,12.47
2018-04-17T18:00:53.246Z,12.40
2018-04-17T18:03:23.244Z,13.67
2018-04-17T18:05:50.750Z,13.43
2018-04-17T18:16:24.463Z,11.10
2018-04-17T18:23:56.044Z,13.70
2018-04-17T18:31:33.823Z,13.40
2018-04-17T18:34:05.023Z,15.23
2018-04-17T18:36:33.126Z,13.63
2018-04-17T18:41:52.830Z,14.53
2018-04-17T18:44:21.257Z,14.30
2018-04-17T18:46:48.586Z,13.90
2018-04-17T18:49:16.158Z,13.70
2018-04-17T18:51:43.512Z,16.20
2018-04-17T18:54:13.488Z,14.30
2018-04-17T18:59:14.559Z,13.80
2018-04-17T19:01:42.006Z,15.80
2018-04-17T19:04:09.477Z,15.00
2018-04-17T19:06:37.400Z,13.90
2018-04-17T19:09:04.968Z,12.70
2018-04-17T19:11:34.271Z,12.80
2018-04-17T19:14:02.634Z,13.90
2018-04-17T19:16:29.976Z,13.63
2018-04-17T19:18:57.309Z,14.60
2018-04-17T19:21:24.789Z,13.90
2018-04-17T19:23:52.217Z,14.77
2018-04-17T19:26:19.570Z,13.57
2018-04-17T19:28:47.118Z,14.20
2018-04-17T19:31:14.963Z,15.03
2018-04-17T19:33:42.300Z,15.20
2018-04-17T19:36:10.332Z,14.33
2018-04-17T19:38:37.885Z,14.53
2018-04-17T19:41:05.335Z,14.17
2018-04-17T19:43:36.436Z,14.17
2018-04-17T19:46:03.984Z,15.70
2018-04-17T19:51:12.828Z,16.10
2018-04-17T19:53:40.764Z,16.10
2018-04-17T19:56:08.709Z,16.20
2018-04-17T20:01:29.109Z,14.10
2018-04-17T20:03:57.187Z,13.23
2018-04-17T20:06:25.198Z,13.90
2018-04-17T20:08:52.894Z,13.10
2018-04-17T20:11:20.528Z,12.33
2018-04-17T20:13:47.887Z,14.93
2018-04-17T20:16:15.198Z,14.03
2018-04-17T20:18:44.894Z,14.20
2018-04-17T20:21:12.592Z,13.80
2018-04-17T20:23:40.127Z,13.13
2018-04-17T20:26:07.967Z,13.40
2018-04-17T20:28:35.463Z,14.70
2018-04-17T20:31:02.820Z,14.73
2018-04-17T20:33:30.421Z,13.30
2018-04-17T20:35:57.885Z,13.70
2018-04-17T20:38:25.388Z,13.37
2018-04-17T20:40:52.770Z,14.60
2018-04-17T20:43:20.171Z,14.10
2018-04-17T20:45:47.570Z,13.63
2018-04-17T20:48:15.784Z,13.90
2018-04-17T20:50:43.330Z,13.90
2018-04-17T20:53:10.661Z,16.07
2018-04-17T20:55:38.102Z,16.70
2018-04-17T20:58:05.505Z,15.40
2018-04-17T21:00:33.189Z,17.33
2018-04-17T21:03:02.701Z,17.23
2018-04-17T21:05:30.141Z,16.97
2018-04-17T21:07:57.493Z,15.50
2018-04-17T21:10:24.887Z,14.40
2018-04-17T21:12:52.295Z,16.07
2018-04-17T21:15:19.655Z,16.07
2018-04-17T21:17:47.091Z,16.27
2018-04-17T21:20:14.567Z,13.20
2018-04-17T21:22:42.068Z,16.10
2018-04-17T21:25:09.525Z,17.23
2018-04-17T21:27:37.003Z,15.30
2018-04-17T21:30:04.334Z,13.93
2018-04-17T21:32:31.777Z,15.60
2018-04-17T21:34:59.279Z,14.47
2018-04-17T21:37:28.469Z,15.93
2018-04-17T21:39:55.858Z,14.03
2018-04-17T21:42:23.169Z,16.23
2018-04-17T21:44:50.566Z,14.17
2018-04-17T21:47:17.880Z,15.50
2018-04-17T21:49:45.237Z,13.97
2018-04-17T21:52:12.540Z,13.50
2018-04-17T21:54:39.948Z,13.73
2018-04-17T21:57:08.109Z,13.73
2018-04-17T21:59:35.514Z,13.13
2018-04-17T22:02:02.854Z,13.10
2018-04-17T22:04:30.270Z,14.63
2018-04-17T22:06:57.575Z,14.53
2018-04-17T22:09:24.924Z,14.00
2018-04-17T22:11:52.233Z,15.20
2018-04-17T22:14:19.561Z,15.13
2018-04-17T22:16:46.915Z,14.13
2018-04-17T22:19:14.281Z,13.83
2018-04-17T22:21:41.707Z,13.73
2018-04-17T22:24:09.049Z,12.47
2018-04-17T22:26:37.097Z,13.13
2018-04-17T22:29:04.393Z,14.40
2018-04-17T22:31:31.686Z,13.83
2018-04-17T22:33:59.056Z,14.03
2018-04-17T22:36:27.702Z,15.10
2018-04-17T22:38:54.987Z,12.70
2018-04-17T22:41:22.276Z,16.53
2018-04-17T22:43:49.704Z,14.00
2018-04-17T22:46:17.011Z,12.97
2018-04-17T22:48:44.353Z,12.63
2018-04-17T22:51:11.723Z,13.93
2018-04-17T22:53:39.051Z,11.70
2018-04-17T22:56:06.411Z,13.40
2018-04-17T22:58:33.712Z,13.30
2018-04-17T23:01:01.062Z,11.77
2018-04-17T23:03:28.383Z,12.10
2018-04-17T23:05:55.703Z,14.27
2018-04-17T23:08:23.039Z,12.90
2018-04-17T23:10:50.334Z,13.77
2018-04-17T23:13:17.647Z,12.50
2018-04-17T23:15:44.947Z,12.97
2018-04-17T23:18:12.366Z,14.00
2018-04-17T23:20:39.661Z,11.37
2018-04-17T23:23:07.853Z,11.33
2018-04-17T23:25:35.139Z,11.10
2018-04-17T23:28:02.498Z,10.23
2018-04-17T23:30:29.820Z,9.67
2018-04-17T23:32:57.184Z,10.60
2018-04-17T23:35:24.554Z,10.50
2018-04-17T23:37:51.812Z,9.60
2018-04-17T23:40:19.123Z,10.83
2018-04-17T23:42:46.401Z,11.10
2018-04-17T23:45:13.760Z,10.87
2018-04-17T23:47:41.041Z,10.10
2018-04-17T23:50:08.396Z,10.80
2018-04-17T23:52:35.759Z,10.43
2018-04-17T23:55:03.485Z,10.23
2018-04-17T23:57:30.776Z,10.43
2018-04-17T23:59:58.184Z,9.70
